createdAt,value
2023-05-07T00:02:08.610Z,101033.73
2023-05-07T00:04:38.942Z,101035.55
2023-05-07T00:07:06.805Z,101039.59
2023-05-07T00:09:33.816Z,101040.77
2023-05-07T00:12:00.897Z,101041.31
2023-05-07T00:14:27.712Z,101039.27
2023-05-07T00:16:54.941Z,101041.97
2023-05-07T00:19:21.964Z,101039.46
2023-05-07T00:21:49.284Z,101038.70
2023-05-07T00:24:16.251Z,101036.92
2023-05-07T00:26:43.251Z,101036.91
2023-05-07T00:29:10.175Z,101041.27
2023-05-07T00:31:37.099Z,101038.95
2023-05-07T00:34:04.946Z,101040.71
2023-05-07T00:36:32.008Z,101042.08
2023-05-07T00:39:01.170Z,101041.38
2023-05-07T00:41:28.304Z,101045.09
2023-05-07T00:43:55.390Z,101045.54
2023-05-07T00:46:22.533Z,101047.31
2023-05-07T00:48:51.173Z,101041.49
2023-05-07T00:51:18.893Z,101041.38
2023-05-07T00:53:46.383Z,101041.15
2023-05-07T00:56:13.396Z,101041.59
2023-05-07T00:58:40.504Z,101040.40
2023-05-07T01:01:07.627Z,101038.27
2023-05-07T01:03:34.648Z,101037.50
2023-05-07T01:06:02.293Z,101041.27
2023-05-07T01:08:30.639Z,101039.62
2023-05-07T01:10:57.624Z,101046.45
2023-05-07T01:13:24.586Z,101045.23
2023-05-07T01:15:51.774Z,101045.51
2023-05-07T01:18:18.616Z,101049.03
2023-05-07T01:20:46.243Z,101054.61
2023-05-07T01:23:13.954Z,101051.95
2023-05-07T01:25:40.891Z,101061.10
2023-05-07T01:28:09.931Z,101060.77
2023-05-07T01:30:38.006Z,101056.77
2023-05-07T01:33:11.301Z,101058.67
2023-05-07T01:35:46.708Z,101054.52
2023-05-07T01:38:13.734Z,101053.78
2023-05-07T01:40:40.661Z,101052.14
2023-05-07T01:43:08.084Z,101052.05
2023-05-07T01:45:35.783Z,101052.13
2023-05-07T01:48:03.748Z,101054.16
2023-05-07T01:50:31.285Z,101055.40
2023-05-07T01:52:58.121Z,101053.50
2023-05-07T01:55:25.114Z,101055.36
2023-05-07T01:57:52.221Z,101053.72
2023-05-07T02:00:20.343Z,101055.92
2023-05-07T02:02:47.522Z,101058.73
2023-05-07T02:05:24.257Z,101063.85
2023-05-07T02:07:58.860Z,101058.06
2023-05-07T02:10:27.645Z,101056.53
2023-05-07T02:12:54.610Z,101063.29
2023-05-07T02:15:21.622Z,101059.23
2023-05-07T02:18:05.162Z,101062.39
2023-05-07T02:20:32.317Z,101066.27
2023-05-07T02:22:59.341Z,101066.80
2023-05-07T02:25:26.550Z,101066.27
2023-05-07T02:27:53.795Z,101066.40
2023-05-07T02:30:22.438Z,101072.63
2023-05-07T02:32:51.084Z,101074.52
2023-05-07T02:35:18.164Z,101078.05
2023-05-07T02:37:45.241Z,101082.30
2023-05-07T02:40:13.655Z,101082.77
2023-05-07T02:42:40.702Z,101081.91
2023-05-07T02:45:08.739Z,101083.98
2023-05-07T02:47:35.901Z,101088.02
2023-05-07T02:50:04.702Z,101090.52
2023-05-07T02:52:31.922Z,101090.45
2023-05-07T02:54:59.251Z,101095.89
2023-05-07T02:57:26.238Z,101095.73
2023-05-07T02:59:53.132Z,101093.86
2023-05-07T03:02:21.356Z,101095.48
2023-05-07T03:04:48.283Z,101094.70
2023-05-07T03:07:15.745Z,101095.93
2023-05-07T03:09:42.979Z,101099.70
2023-05-07T03:12:10.278Z,101105.14
2023-05-07T03:14:37.390Z,101103.79
2023-05-07T03:17:04.540Z,101102.02
2023-05-07T03:19:31.774Z,101103.92
2023-05-07T03:21:59.147Z,101107.77
2023-05-07T03:24:26.403Z,101104.70
2023-05-07T03:26:53.279Z,101104.61
2023-05-07T03:29:21.051Z,101106.80
2023-05-07T03:31:48.165Z,101112.90
2023-05-07T03:34:15.120Z,101115.29
2023-05-07T03:36:42.248Z,101116.02
2023-05-07T03:39:09.726Z,101122.00
2023-05-07T03:41:39.427Z,101124.36
2023-05-07T03:44:06.575Z,101122.89
2023-05-07T03:46:34.439Z,101123.59
2023-05-07T03:49:01.433Z,101128.30
2023-05-07T03:51:28.967Z,101129.45
2023-05-07T03:53:58.133Z,101135.71
2023-05-07T03:56:27.861Z,101137.48
2023-05-07T03:58:55.801Z,101142.73
2023-05-07T04:01:22.706Z,101144.98
2023-05-07T04:03:49.898Z,101149.25
2023-05-07T04:06:18.451Z,101153.31
2023-05-07T04:08:46.622Z,101156.82
2023-05-07T04:11:13.842Z,101160.78
2023-05-07T04:13:40.878Z,101163.30
2023-05-07T04:16:08.919Z,101168.16
2023-05-07T04:18:37.244Z,101167.18
2023-05-07T04:21:04.798Z,101173.06
2023-05-07T04:23:31.944Z,101173.11
2023-05-07T04:26:02.100Z,101167.85
2023-05-07T04:28:40.908Z,101170.30
2023-05-07T04:31:08.213Z,101175.69
2023-05-07T04:33:36.221Z,101175.36
2023-05-07T04:36:04.161Z,101179.44
2023-05-07T04:38:32.951Z,101184.38
2023-05-07T04:41:06.405Z,101187.42
2023-05-07T04:43:35.003Z,101189.09
2023-05-07T04:46:02.423Z,101191.08
2023-05-07T04:48:30.125Z,101190.73
2023-05-07T04:50:58.620Z,101184.07
2023-05-07T04:53:26.089Z,101182.94
2023-05-07T04:56:00.757Z,101182.69
2023-05-07T04:58:33.183Z,101182.98
2023-05-07T05:01:01.449Z,101181.48
2023-05-07T05:03:28.811Z,101178.40
2023-05-07T05:05:55.999Z,101172.92
2023-05-07T05:08:23.300Z,101173.27
2023-05-07T05:10:50.975Z,101171.62
2023-05-07T05:13:18.857Z,101169.61
2023-05-07T05:15:46.808Z,101175.23
2023-05-07T05:18:14.236Z,101173.15
2023-05-07T05:20:41.439Z,101173.20
2023-05-07T05:23:09.015Z,101171.20
2023-05-07T05:25:36.198Z,101169.42
2023-05-07T05:28:03.923Z,101171.15
2023-05-07T05:30:31.598Z,101177.27
2023-05-07T05:32:58.454Z,101177.23
2023-05-07T05:35:27.204Z,101178.98
2023-05-07T05:37:54.149Z,101175.16
2023-05-07T05:40:21.711Z,101171.34
2023-05-07T05:42:48.690Z,101172.02
2023-05-07T05:45:16.720Z,101171.95
2023-05-07T05:47:45.832Z,101170.83
2023-05-07T05:50:13.499Z,101167.82
2023-05-07T05:52:42.074Z,101165.11
2023-05-07T05:55:10.035Z,101164.54
2023-05-07T05:57:37.723Z,101160.60
2023-05-07T06:00:05.941Z,101157.45
2023-05-07T06:02:34.154Z,101152.09
2023-05-07T06:05:01.951Z,101149.67
2023-05-07T06:07:28.969Z,101143.98
2023-05-07T06:09:56.636Z,101145.42
2023-05-07T06:12:24.194Z,101142.80
2023-05-07T06:14:51.113Z,101139.70
2023-05-07T06:17:20.916Z,101131.56
2023-05-07T06:19:49.951Z,101125.64
2023-05-07T06:22:18.269Z,101118.85
2023-05-07T06:24:45.418Z,101117.29
2023-05-07T06:27:12.334Z,101115.39
2023-05-07T06:29:40.415Z,101106.98
2023-05-07T06:32:13.884Z,101109.05
2023-05-07T06:34:42.822Z,101110.08
2023-05-07T06:37:10.084Z,101107.05
2023-05-07T06:39:59.285Z,101111.45
2023-05-07T06:42:27.765Z,101104.83
2023-05-07T06:44:58.304Z,101108.42
2023-05-07T06:47:25.787Z,101111.61
2023-05-07T06:49:54.151Z,101116.02
2023-05-07T06:52:22.425Z,101118.73
2023-05-07T06:54:50.650Z,101123.08
2023-05-07T06:57:18.644Z,101124.86
2023-05-07T06:59:46.491Z,101123.01
2023-05-07T07:02:13.417Z,101125.01
2023-05-07T07:04:41.290Z,101130.52
2023-05-07T07:07:10.049Z,101132.00
2023-05-07T07:09:37.277Z,101130.23
2023-05-07T07:12:04.751Z,101122.70
2023-05-07T07:14:32.004Z,101117.09
2023-05-07T07:16:59.237Z,101119.45
2023-05-07T07:19:28.269Z,101112.50
2023-05-07T07:21:55.504Z,101101.32
2023-05-07T07:24:22.579Z,101094.99
2023-05-07T07:26:53.098Z,101090.63
2023-05-07T07:29:20.335Z,101086.04
2023-05-07T07:31:47.431Z,101088.05
2023-05-07T07:34:14.655Z,101088.87
2023-05-07T07:36:46.061Z,101093.59
2023-05-07T07:39:15.469Z,101097.09
2023-05-07T07:41:42.663Z,101103.73
2023-05-07T07:44:09.943Z,101100.23
2023-05-07T07:46:37.556Z,101099.61
2023-05-07T07:49:04.751Z,101100.47
2023-05-07T07:51:32.646Z,101094.33
2023-05-07T07:54:00.277Z,101089.65
2023-05-07T07:56:27.668Z,101085.81
2023-05-07T07:58:54.493Z,101076.92
2023-05-07T08:01:21.453Z,101067.01
2023-05-07T08:03:48.882Z,101064.17
2023-05-07T08:06:16.678Z,101064.14
2023-05-07T08:08:44.106Z,101067.95
2023-05-07T08:11:11.525Z,101065.36
2023-05-07T08:13:38.579Z,101066.22
2023-05-07T08:16:06.110Z,101070.65
2023-05-07T08:18:33.378Z,101064.23
2023-05-07T08:21:02.231Z,101064.03
2023-05-07T08:23:29.410Z,101058.31
2023-05-07T08:25:56.538Z,101056.59
2023-05-07T08:28:26.038Z,101058.08
2023-05-07T08:30:53.044Z,101053.35
2023-05-07T08:33:20.395Z,101053.68
2023-05-07T08:35:47.397Z,101050.39
2023-05-07T08:38:15.255Z,101049.08
2023-05-07T08:40:42.486Z,101043.71
2023-05-07T08:43:14.416Z,101037.08
2023-05-07T08:45:41.630Z,101037.89
2023-05-07T08:48:11.522Z,101034.57
2023-05-07T08:50:38.877Z,101034.38
2023-05-07T08:53:07.686Z,101032.42
2023-05-07T08:55:34.691Z,101033.89
2023-05-07T08:58:02.480Z,101035.84
2023-05-07T09:00:30.036Z,101034.77
2023-05-07T09:02:57.246Z,101031.56
2023-05-07T09:05:24.673Z,101034.85
2023-05-07T09:07:54.419Z,101031.06
2023-05-07T09:10:22.692Z,101022.96
2023-05-07T09:12:50.639Z,101025.57
2023-05-07T09:15:19.409Z,101021.77
2023-05-07T09:17:47.356Z,101021.91
2023-05-07T09:20:15.068Z,101021.95
2023-05-07T09:22:45.442Z,101022.23
2023-05-07T09:25:17.035Z,101025.48
2023-05-07T09:27:44.294Z,101025.73
2023-05-07T09:30:12.473Z,101022.34
2023-05-07T09:32:39.542Z,101018.96
2023-05-07T09:35:17.175Z,101013.16
2023-05-07T09:37:44.342Z,101010.08
2023-05-07T09:40:22.414Z,101009.61
2023-05-07T09:42:50.925Z,101007.27
2023-05-07T09:45:28.146Z,101002.89
2023-05-07T09:47:57.845Z,101001.59
2023-05-07T09:50:30.611Z,100999.55
2023-05-07T09:52:58.168Z,100996.09
2023-05-07T09:55:25.789Z,100989.89
2023-05-07T09:57:53.905Z,100982.69
2023-05-07T10:00:22.394Z,100984.91
2023-05-07T10:02:51.054Z,100982.27
2023-05-07T10:05:21.669Z,100982.26
2023-05-07T10:07:49.521Z,100982.30
2023-05-07T10:10:17.208Z,100982.73
2023-05-07T10:12:44.533Z,100983.46
2023-05-07T10:15:19.281Z,100986.73
2023-05-07T10:17:49.105Z,100988.31
2023-05-07T10:20:16.504Z,100989.33
2023-05-07T10:22:45.815Z,100990.22
2023-05-07T10:25:24.808Z,100984.15
2023-05-07T10:27:51.991Z,100981.95
2023-05-07T10:30:42.156Z,100977.39
2023-05-07T10:33:10.399Z,100977.25
2023-05-07T10:35:45.549Z,100982.47
2023-05-07T10:38:12.776Z,100973.81
2023-05-07T10:40:41.053Z,100973.41
2023-05-07T10:43:10.673Z,100977.84
2023-05-07T10:45:44.843Z,100971.53
2023-05-07T10:48:29.794Z,100972.10
2023-05-07T10:51:21.960Z,100970.30
2023-05-07T10:54:15.764Z,100969.81
2023-05-07T10:56:52.121Z,100974.79
2023-05-07T10:59:28.336Z,100967.09
2023-05-07T11:02:04.412Z,100964.61
2023-05-07T11:05:23.332Z,100963.93
2023-05-07T11:08:09.539Z,100965.30
2023-05-07T11:10:53.739Z,100961.02
2023-05-07T11:13:48.397Z,100962.71
2023-05-07T11:16:38.918Z,100967.16
2023-05-07T11:19:51.776Z,100960.61
2023-05-07T11:22:34.285Z,100956.21
2023-05-07T11:25:36.574Z,100954.10
2023-05-07T11:28:11.569Z,100953.85
2023-05-07T11:30:43.831Z,100949.55
2023-05-07T11:33:12.220Z,100942.39
2023-05-07T11:35:41.759Z,100942.15
2023-05-07T11:38:10.874Z,100936.87
2023-05-07T11:40:52.577Z,100937.75
2023-05-07T11:43:19.861Z,100937.48
2023-05-07T11:45:47.514Z,100934.16
2023-05-07T11:48:15.042Z,100923.91
2023-05-07T11:50:55.853Z,100919.87
2023-05-07T11:53:25.799Z,100919.44
2023-05-07T11:55:58.741Z,100923.05
2023-05-07T11:58:26.806Z,100925.08
2023-05-07T12:00:54.487Z,100922.35
2023-05-07T12:03:22.193Z,100923.76
2023-05-07T12:05:49.263Z,100926.16
2023-05-07T12:08:19.994Z,100931.74
2023-05-07T12:10:50.904Z,100930.90
2023-05-07T12:13:21.868Z,100925.38
2023-05-07T12:15:56.569Z,100919.48
2023-05-07T12:18:23.735Z,100917.89
2023-05-07T12:20:50.616Z,100922.10
2023-05-07T12:23:17.889Z,100921.20
2023-05-07T12:25:48.852Z,100913.88
2023-05-07T12:28:19.963Z,100915.74
2023-05-07T12:30:48.542Z,100917.15
2023-05-07T12:33:20.847Z,100916.35
2023-05-07T12:35:48.842Z,100913.23
2023-05-07T12:38:17.521Z,100912.98
2023-05-07T12:41:11.910Z,100912.45
2023-05-07T12:43:39.384Z,100911.55
2023-05-07T12:46:07.915Z,100907.64
2023-05-07T12:48:34.954Z,100900.66
2023-05-07T12:51:03.640Z,100899.33
2023-05-07T12:53:30.800Z,100901.92
2023-05-07T12:55:58.673Z,100900.16
2023-05-07T12:58:28.320Z,100890.42
2023-05-07T13:00:56.528Z,100885.38
2023-05-07T13:03:31.980Z,100887.15
2023-05-07T13:06:00.750Z,100889.87
2023-05-07T13:08:38.873Z,100889.30
2023-05-07T13:11:06.080Z,100888.94
2023-05-07T13:13:35.624Z,100889.57
2023-05-07T13:16:03.212Z,100891.00
2023-05-07T13:18:31.183Z,100893.39
2023-05-07T13:20:58.340Z,100886.57
2023-05-07T13:23:25.141Z,100878.48
2023-05-07T13:25:55.120Z,100877.19
2023-05-07T13:28:22.288Z,100872.55
2023-05-07T13:30:49.367Z,100878.90
2023-05-07T13:33:17.133Z,100877.45
2023-05-07T13:35:43.995Z,100876.65
2023-05-07T13:38:11.087Z,100875.89
2023-05-07T13:40:38.149Z,100878.21
2023-05-07T13:43:06.859Z,100879.10
2023-05-07T13:45:33.713Z,100877.23
2023-05-07T13:48:01.668Z,100875.96
2023-05-07T13:50:31.054Z,100879.55
2023-05-07T13:52:58.845Z,100879.52
2023-05-07T13:55:26.087Z,100887.27
2023-05-07T13:58:00.605Z,100888.64
2023-05-07T14:00:28.219Z,100894.61
2023-05-07T14:02:56.299Z,100896.27
2023-05-07T14:05:26.390Z,100891.42
2023-05-07T14:07:53.868Z,100888.89
2023-05-07T14:10:20.962Z,100884.77
2023-05-07T14:12:48.165Z,100880.96
2023-05-07T14:15:15.498Z,100876.26
2023-05-07T14:17:42.382Z,100873.39
2023-05-07T14:20:10.341Z,100870.30
2023-05-07T14:22:37.658Z,100871.14
2023-05-07T14:25:07.215Z,100871.02
2023-05-07T14:27:34.432Z,100876.72
2023-05-07T14:30:01.289Z,100873.34
2023-05-07T14:32:28.361Z,100876.17
2023-05-07T14:34:55.491Z,100872.36
2023-05-07T14:37:22.448Z,100871.95
2023-05-07T14:39:50.201Z,100872.92
2023-05-07T14:42:18.416Z,100875.48
2023-05-07T14:44:52.688Z,100876.35
2023-05-07T14:47:20.252Z,100876.73
2023-05-07T14:49:47.325Z,100875.77
2023-05-07T14:52:14.204Z,100883.84
2023-05-07T14:54:41.161Z,100884.27
2023-05-07T14:57:11.124Z,100880.41
2023-05-07T14:59:39.644Z,100875.79
2023-05-07T15:02:09.224Z,100875.38
2023-05-07T15:04:37.189Z,100879.63
2023-05-07T15:07:04.028Z,100884.77
2023-05-07T15:09:34.238Z,100882.56
2023-05-07T15:12:01.438Z,100878.69
2023-05-07T15:14:28.376Z,100881.49
2023-05-07T15:16:55.505Z,100876.98
2023-05-07T15:19:23.458Z,100875.63
2023-05-07T15:21:50.414Z,100877.98
2023-05-07T15:24:17.258Z,100874.60
2023-05-07T15:26:44.216Z,100875.44
2023-05-07T15:29:11.662Z,100875.83
2023-05-07T15:31:41.592Z,100878.27
2023-05-07T15:34:08.640Z,100876.77
2023-05-07T15:36:37.568Z,100878.52
2023-05-07T15:39:05.589Z,100878.59
2023-05-07T15:41:32.732Z,100879.83
2023-05-07T15:44:03.791Z,100884.84
2023-05-07T15:46:30.904Z,100885.69
2023-05-07T15:48:58.136Z,100888.67
2023-05-07T15:51:25.186Z,100891.98
2023-05-07T15:53:53.510Z,100894.21
2023-05-07T15:56:21.550Z,100898.59
2023-05-07T15:58:49.593Z,100903.58
2023-05-07T16:01:16.789Z,100902.82
2023-05-07T16:03:43.925Z,100903.59
2023-05-07T16:06:13.855Z,100908.98
2023-05-07T16:08:42.087Z,100908.77
2023-05-07T16:11:10.998Z,100908.27
2023-05-07T16:13:37.920Z,100911.34
2023-05-07T16:16:06.861Z,100911.27
2023-05-07T16:18:34.149Z,100913.05
2023-05-07T16:21:01.518Z,100916.13
2023-05-07T16:23:29.298Z,100918.88
2023-05-07T16:25:57.946Z,100920.98
2023-05-07T16:28:25.786Z,100924.26
2023-05-07T16:30:53.076Z,100926.30
2023-05-07T16:33:20.209Z,100927.11
2023-05-07T16:35:56.761Z,100931.21
2023-05-07T16:38:23.819Z,100932.61
2023-05-07T16:40:50.868Z,100935.49
2023-05-07T16:43:24.142Z,100933.75
2023-05-07T16:45:55.893Z,100930.14
2023-05-07T16:48:23.168Z,100930.97
2023-05-07T16:50:50.013Z,100931.27
2023-05-07T16:53:16.858Z,100928.29
2023-05-07T16:55:43.797Z,100932.73
2023-05-07T16:58:11.479Z,100935.42
2023-05-07T17:00:50.231Z,100935.98
2023-05-07T17:03:18.825Z,100935.29
2023-05-07T17:05:46.143Z,100939.83
2023-05-07T17:08:14.323Z,100940.44
2023-05-07T17:10:42.064Z,100950.02
2023-05-07T17:13:08.910Z,100949.17
2023-05-07T17:15:36.187Z,100951.70
2023-05-07T17:18:03.235Z,100949.66
2023-05-07T17:20:30.172Z,100954.77
2023-05-07T17:22:57.134Z,100957.10
2023-05-07T17:25:24.020Z,100962.61
2023-05-07T17:27:51.166Z,100964.16
2023-05-07T17:30:18.829Z,100964.11
2023-05-07T17:32:45.934Z,100967.61
2023-05-07T17:35:12.911Z,100970.67
2023-05-07T17:37:40.294Z,100975.25
2023-05-07T17:40:08.041Z,100974.84
2023-05-07T17:42:35.016Z,100968.86
2023-05-07T17:45:01.964Z,100963.15
2023-05-07T17:47:28.891Z,100968.23
2023-05-07T17:49:57.497Z,100971.39
2023-05-07T17:52:24.835Z,100979.23
2023-05-07T17:54:51.601Z,100982.86
2023-05-07T17:57:18.558Z,100981.11
2023-05-07T17:59:46.186Z,100984.71
2023-05-07T18:02:13.545Z,100984.84
2023-05-07T18:04:40.607Z,100983.44
2023-05-07T18:07:07.516Z,100984.70
2023-05-07T18:09:34.483Z,100985.30
2023-05-07T18:12:02.132Z,100984.89
2023-05-07T18:14:29.445Z,100989.25
2023-05-07T18:16:56.263Z,100992.86
2023-05-07T18:19:23.292Z,100994.50
2023-05-07T18:21:50.267Z,100996.67
2023-05-07T18:24:17.172Z,101000.76
2023-05-07T18:26:44.112Z,101003.83
2023-05-07T18:29:11.208Z,101011.33
2023-05-07T18:31:38.314Z,101014.84
2023-05-07T18:34:06.686Z,101018.09
2023-05-07T18:36:33.857Z,101026.55
2023-05-07T18:39:01.441Z,101027.52
2023-05-07T18:41:28.439Z,101023.29
2023-05-07T18:43:55.854Z,101022.34
2023-05-07T18:46:23.041Z,101018.79
2023-05-07T18:48:50.103Z,101015.77
2023-05-07T18:51:16.963Z,101014.98
2023-05-07T18:53:43.899Z,101011.84
2023-05-07T18:56:10.837Z,101013.28
2023-05-07T18:58:37.863Z,101012.13
2023-05-07T19:01:08.733Z,101013.40
2023-05-07T19:03:36.042Z,101013.65
2023-05-07T19:06:03.459Z,101010.65
2023-05-07T19:08:30.270Z,101015.73
2023-05-07T19:10:58.528Z,101013.28
2023-05-07T19:13:28.670Z,101010.33
2023-05-07T19:15:55.944Z,101003.34
2023-05-07T19:18:23.019Z,101004.20
2023-05-07T19:20:52.176Z,101004.20
2023-05-07T19:23:21.829Z,101005.13
2023-05-07T19:25:49.349Z,101004.73
2023-05-07T19:28:16.463Z,101005.91
2023-05-07T19:30:43.383Z,101009.88
2023-05-07T19:33:10.561Z,101010.14
2023-05-07T19:35:37.800Z,101017.41
2023-05-07T19:38:06.341Z,101015.85
2023-05-07T19:40:33.311Z,101015.05
2023-05-07T19:43:00.360Z,101018.21
2023-05-07T19:45:27.223Z,101017.52
2023-05-07T19:47:54.456Z,101018.94
2023-05-07T19:50:22.329Z,101023.19
2023-05-07T19:52:49.344Z,101024.52
2023-05-07T19:55:16.383Z,101023.12
2023-05-07T19:57:44.096Z,101024.93
2023-05-07T20:00:12.190Z,101027.11
2023-05-07T20:02:42.165Z,101028.33
2023-05-07T20:05:11.741Z,101032.88
2023-05-07T20:07:38.730Z,101035.42
2023-05-07T20:10:06.547Z,101028.75
2023-05-07T20:12:33.437Z,101028.98
2023-05-07T20:15:00.579Z,101030.95
2023-05-07T20:17:27.492Z,101032.95
2023-05-07T20:19:55.292Z,101031.73
2023-05-07T20:22:23.910Z,101040.29
2023-05-07T20:24:51.438Z,101045.23
2023-05-07T20:27:22.539Z,101047.67
2023-05-07T20:29:49.526Z,101045.23
2023-05-07T20:32:17.463Z,101048.14
2023-05-07T20:34:48.001Z,101048.48
2023-05-07T20:37:15.841Z,101047.64
2023-05-07T20:39:42.962Z,101046.98
2023-05-07T20:42:09.790Z,101047.64
2023-05-07T20:44:37.090Z,101044.60
2023-05-07T20:47:04.978Z,101043.77
2023-05-07T20:49:31.820Z,101041.84
2023-05-07T20:51:58.964Z,101044.39
2023-05-07T20:54:28.311Z,101046.44
2023-05-07T20:56:57.085Z,101045.67
2023-05-07T20:59:24.401Z,101044.10
2023-05-07T21:01:51.822Z,101040.94
2023-05-07T21:04:20.204Z,101042.59
2023-05-07T21:06:47.157Z,101040.80
2023-05-07T21:09:14.145Z,101044.95
2023-05-07T21:11:41.472Z,101042.89
2023-05-07T21:14:08.582Z,101044.63
2023-05-07T21:16:35.769Z,101048.72
2023-05-07T21:19:02.744Z,101051.58
2023-05-07T21:21:29.952Z,101054.73
2023-05-07T21:23:57.567Z,101056.54
2023-05-07T21:26:27.482Z,101051.51
2023-05-07T21:28:54.416Z,101048.50
2023-05-07T21:31:21.441Z,101052.34
2023-05-07T21:33:48.402Z,101052.54
2023-05-07T21:36:15.208Z,101047.30
2023-05-07T21:38:42.066Z,101049.76
2023-05-07T21:41:08.990Z,101051.88
2023-05-07T21:43:36.273Z,101056.09
2023-05-07T21:46:10.690Z,101054.86
2023-05-07T21:48:38.997Z,101051.92
2023-05-07T21:51:07.527Z,101053.94
2023-05-07T21:53:34.913Z,101053.16
2023-05-07T21:56:03.177Z,101055.84
2023-05-07T21:58:31.344Z,101057.77
2023-05-07T22:00:58.816Z,101057.30
2023-05-07T22:03:25.953Z,101054.42
2023-05-07T22:05:53.221Z,101057.19
2023-05-07T22:08:20.484Z,101057.55
2023-05-07T22:10:47.612Z,101056.77
2023-05-07T22:13:14.431Z,101060.39
2023-05-07T22:15:49.653Z,101062.04
2023-05-07T22:18:23.798Z,101062.10
2023-05-07T22:20:52.125Z,101063.83
2023-05-07T22:23:19.095Z,101062.75
2023-05-07T22:25:45.886Z,101063.69
2023-05-07T22:28:13.127Z,101062.90
2023-05-07T22:30:40.647Z,101061.95
2023-05-07T22:33:07.703Z,101061.12
2023-05-07T22:35:35.862Z,101062.21
2023-05-07T22:38:02.970Z,101062.23
2023-05-07T22:40:29.774Z,101064.85
2023-05-07T22:42:56.719Z,101063.73
2023-05-07T22:45:23.537Z,101059.05
2023-05-07T22:47:50.700Z,101056.33
2023-05-07T22:50:18.239Z,101054.20
2023-05-07T22:52:45.212Z,101053.79
2023-05-07T22:55:12.005Z,101054.52
2023-05-07T22:57:39.052Z,101052.23
2023-05-07T23:00:06.735Z,101051.28
2023-05-07T23:02:34.065Z,101054.64
2023-05-07T23:05:01.948Z,101048.80
2023-05-07T23:07:29.306Z,101053.30
2023-05-07T23:09:56.175Z,101051.95
2023-05-07T23:12:23.333Z,101053.10
2023-05-07T23:14:50.520Z,101050.88
2023-05-07T23:17:17.562Z,101045.70
2023-05-07T23:19:44.436Z,101046.77
2023-05-07T23:22:12.370Z,101045.65
2023-05-07T23:24:39.891Z,101047.61
2023-05-07T23:27:07.401Z,101048.91
2023-05-07T23:29:35.311Z,101051.73
2023-05-07T23:32:02.357Z,101053.66
2023-05-07T23:34:30.506Z,101052.67
2023-05-07T23:36:57.356Z,101055.77
2023-05-07T23:39:24.167Z,101051.84
2023-05-07T23:41:51.053Z,101054.56
2023-05-07T23:44:17.963Z,101052.41
2023-05-07T23:46:44.924Z,101050.05
2023-05-07T23:49:12.246Z,101052.85
2023-05-07T23:51:39.410Z,101051.04
2023-05-07T23:54:06.885Z,101049.32
2023-05-07T23:56:34.331Z,101043.48
2023-05-07T23:59:01.488Z,101043.27
